Time;durP1;ratioP1;P1;durP2;ratioP2;P2;SDS_P1;SDS_P2;PMS_P1;PMS_P2;Temp;Humidity;BMP_temperature;BMP_pressure;BME280_temperature;BME280_humidity;BME280_pressure;Samples;Min_cycle;Max_cycle;Signal;HPM_P1;HPM_P2
2022/03/22 00:02:17;;;;;;;;;25.25;19.75;;;;;15.12;46.52;102095.44;5046688;28;45395;-60
2022/03/22 00:04:42;;;;;;;;;28.80;21.60;;;;;15.01;46.30;102088.63;5047201;28;45485;-61
2022/03/22 00:07:08;;;;;;;;;24.75;19.00;;;;;15.03;46.58;102090.13;5013505;28;45514;-61
2022/03/22 00:09:34;;;;;;;;;23.50;20.00;;;;;15.26;46.61;102124.81;5014366;28;46151;-62
2022/03/22 00:12:00;;;;;;;;;24.60;21.00;;;;;15.24;46.42;102126.97;5014879;28;45390;-61
2022/03/22 00:14:25;;;;;;;;;18.25;17.75;;;;;15.22;46.21;102122.69;5046689;28;45382;-61
2022/03/22 00:16:53;;;;;;;;;23.25;19.25;;;;;15.20;46.32;102131.19;5015024;28;45463;-61
2022/03/22 00:19:19;;;;;;;;;20.20;20.20;;;;;15.16;46.21;102139.06;5046542;28;45561;-60
2022/03/22 00:21:46;;;;;;;;;22.60;18.00;;;;;15.00;46.25;102114.56;5014587;28;45367;-61
2022/03/22 00:24:11;;;;;;;;;21.80;18.60;;;;;15.11;45.84;102135.22;5013308;28;45513;-61
2022/03/22 00:26:37;;;;;;;;;24.25;20.25;;;;;15.11;46.49;102138.00;5014849;28;45365;-61
2022/03/22 00:29:03;;;;;;;;;18.50;18.50;;;;;15.11;46.19;102149.06;5046970;28;45573;-61
2022/03/22 00:31:29;;;;;;;;;24.00;21.20;;;;;14.90;45.86;102106.66;5014626;28;46572;-60
2022/03/22 00:33:54;;;;;;;;;19.40;17.60;;;;;15.08;46.35;102141.16;5014482;28;45453;-61
2022/03/22 00:36:20;;;;;;;;;19.75;17.25;;;;;15.11;46.40;102143.53;5008678;28;45381;-61
2022/03/22 00:38:45;;;;;;;;;17.75;17.00;;;;;15.08;45.97;102144.78;4994681;28;45402;-61
2022/03/22 00:41:13;;;;;;;;;25.00;19.00;;;;;14.57;45.33;102064.00;4995811;28;45688;-60
2022/03/22 00:43:39;;;;;;;;;18.00;18.00;;;;;15.04;45.94;102143.47;4998093;28;45489;-60
2022/03/22 00:46:05;;;;;;;;;26.25;21.75;;;;;14.75;45.65;102107.69;4998148;28;45407;-60
2022/03/22 00:48:30;;;;;;;;;24.25;16.50;;;;;15.00;46.15;102148.56;4997720;28;45327;-62
2022/03/22 00:50:56;;;;;;;;;19.00;19.00;;;;;14.45;45.98;102058.22;5013202;28;47352;-60
2022/03/22 00:53:21;;;;;;;;;25.75;19.25;;;;;14.93;46.13;102142.19;4996655;28;45304;-61
2022/03/22 00:55:47;;;;;;;;;20.50;19.25;;;;;14.94;46.00;102152.16;4996903;28;45262;-61
2022/03/22 00:58:13;;;;;;;;;21.60;20.00;;;;;14.71;46.04;102114.66;4998427;28;45366;-65
2022/03/22 01:00:39;;;;;;;;;25.25;19.00;;;;;14.82;45.98;102127.03;4997914;28;46746;-62
2022/03/22 01:03:05;;;;;;;;;20.00;19.00;;;;;14.84;45.22;102144.25;4998075;28;45429;-62
2022/03/22 01:05:31;;;;;;;;;21.40;16.40;;;;;14.64;45.95;102122.06;4998366;28;45413;-61
2022/03/22 01:08:02;;;;;;;;;21.20;19.60;;;;;14.58;45.76;102109.91;4997102;28;45357;-62
2022/03/22 01:10:29;;;;;;;;;22.80;20.40;;;;;14.73;44.91;102142.91;4996719;28;46293;-61
2022/03/22 01:12:54;;;;;;;;;19.60;19.60;;;;;14.71;45.58;102139.50;4996736;28;45434;-62
2022/03/22 01:15:24;;;;;;;;;19.25;17.50;;;;;14.66;45.95;102130.16;4998130;28;45656;-61
2022/03/22 01:17:56;;;;;;;;;16.40;15.00;;;;;13.92;45.00;102026.50;4996976;28;45421;-61
2022/03/22 01:20:26;;;;;;;;;20.20;17.00;;;;;14.63;45.51;102140.53;4997776;28;45472;-63
2022/03/22 01:22:51;;;;;;;;;21.20;19.60;;;;;14.63;45.86;102137.78;4997572;28;45392;-61
2022/03/22 01:25:21;;;;;;;;;19.25;18.50;;;;;14.61;45.16;102134.38;4998112;28;45425;-61
2022/03/22 01:27:47;;;;;;;;;22.40;20.80;;;;;14.52;44.99;102131.97;4977035;28;45686;-61
2022/03/22 01:30:13;;;;;;;;;21.80;20.00;;;;;14.39;44.94;102114.28;5014757;28;46146;-61
2022/03/22 01:32:39;;;;;;;;;17.80;17.80;;;;;14.53;44.73;102120.72;5017347;28;45352;-60
2022/03/22 01:35:05;;;;;;;;;23.50;22.00;;;;;14.55;45.01;102131.56;5016136;28;45367;-60
2022/03/22 01:37:31;;;;;;;;;17.40;17.40;;;;;14.30;44.95;102115.50;5016357;28;45563;-61
2022/03/22 01:39:57;;;;;;;;;18.80;16.40;;;;;14.39;45.05;102139.13;5016961;28;45840;-61
2022/03/22 01:42:22;;;;;;;;;21.75;19.50;;;;;14.38;44.94;102142.97;5017693;28;45390;-60
2022/03/22 01:44:49;;;;;;;;;22.75;17.75;;;;;14.36;45.54;102137.63;5049387;28;45421;-60
2022/03/22 01:47:16;;;;;;;;;19.40;15.80;;;;;14.32;45.10;102130.81;5017572;28;45365;-61
2022/03/22 01:49:42;;;;;;;;;18.40;18.40;;;;;14.30;45.21;102127.38;5017271;28;45703;-60
2022/03/22 01:52:07;;;;;;;;;15.25;12.00;;;;;14.22;44.96;102122.91;5015625;28;45470;-62
2022/03/22 01:54:33;;;;;;;;;22.00;18.00;;;;;14.23;45.37;102132.03;5015883;28;45317;-62
2022/03/22 01:57:00;;;;;;;;;17.25;16.00;;;;;14.28;45.78;102136.94;5017385;28;45456;-61
2022/03/22 01:59:25;;;;;;;;;20.60;18.40;;;;;14.30;45.43;102123.78;5015318;28;48067;-62
2022/03/22 02:07:19;;;;;;;;;19.80;16.60;;;;;14.31;44.95;102133.78;5001764;28;45262;-62
2022/03/22 02:09:44;;;;;;;;;20.00;16.50;;;;;14.29;45.17;102119.34;5032070;28;45295;-59
2022/03/22 02:12:10;;;;;;;;;21.00;21.00;;;;;14.28;45.62;102129.50;5016400;28;45591;-60
2022/03/22 02:14:35;;;;;;;;;16.75;14.25;;;;;14.28;45.43;102124.00;5016696;28;45357;-60
2022/03/22 02:17:10;;;;;;;;;23.75;16.25;;;;;14.26;45.54;102128.88;5017068;28;45603;-60
2022/03/22 02:19:39;;;;;;;;;25.20;19.00;;;;;14.19;45.30;102126.06;5016215;28;46279;-62
2022/03/22 02:22:11;;;;;;;;;26.60;18.20;;;;;14.21;45.31;102128.63;5016581;28;45356;-61
2022/03/22 02:24:37;;;;;;;;;25.40;19.20;;;;;14.16;45.67;102118.19;5048097;28;45419;-60
2022/03/22 02:27:03;;;;;;;;;23.25;19.75;;;;;14.17;45.39;102133.69;4998916;28;45605;-61
2022/03/22 02:29:29;;;;;;;;;21.40;18.40;;;;;14.16;45.61;102137.53;5016019;28;46607;-60
2022/03/22 02:31:54;;;;;;;;;19.25;18.50;;;;;14.15;45.19;102134.94;5016422;28;45433;-60
2022/03/22 02:34:20;;;;;;;;;22.00;21.00;;;;;13.87;45.07;102102.69;5016228;28;45452;-60
2022/03/22 02:36:46;;;;;;;;;22.50;20.25;;;;;14.06;45.22;102120.44;5016666;28;45614;-62
2022/03/22 02:39:12;;;;;;;;;23.00;19.00;;;;;14.05;44.80;102130.63;5016115;28;45906;-61
2022/03/22 02:41:37;;;;;;;;;19.80;17.40;;;;;14.03;45.18;102129.97;5016148;28;45456;-62
2022/03/22 02:44:03;;;;;;;;;23.00;20.50;;;;;14.00;45.02;102132.28;5014968;28;45349;-61
2022/03/22 02:46:29;;;;;;;;;22.00;18.25;;;;;13.99;44.57;102136.97;5015065;28;45624;-61
2022/03/22 02:48:54;;;;;;;;;16.50;16.50;;;;;13.93;44.59;102129.50;5015932;28;45570;-61
2022/03/22 02:51:20;;;;;;;;;21.75;20.50;;;;;13.94;44.69;102125.69;5016192;28;45373;-61
2022/03/22 02:53:45;;;;;;;;;19.50;19.50;;;;;13.91;44.64;102126.06;5016224;28;45375;-61
2022/03/22 02:56:11;;;;;;;;;20.00;17.75;;;;;13.88;44.53;102130.06;5016393;28;45199;-61
2022/03/22 02:58:36;;;;;;;;;21.00;19.50;;;;;13.87;44.40;102127.53;5015575;28;46310;-61
2022/03/22 03:01:02;;;;;;;;;24.25;21.00;;;;;13.81;44.46;102127.28;5016130;28;45314;-61
2022/03/22 03:03:28;;;;;;;;;21.25;18.00;;;;;13.85;44.46;102130.50;5015151;28;45392;-62
2022/03/22 03:05:53;;;;;;;;;17.75;16.25;;;;;13.74;44.09;102134.66;4992658;28;45424;-62
2022/03/22 03:08:19;;;;;;;;;24.00;21.00;;;;;13.50;44.90;102089.03;5010878;28;46208;-62
2022/03/22 03:10:45;;;;;;;;;19.00;19.00;;;;;13.52;44.19;102097.94;5015724;28;45778;-64
2022/03/22 03:13:11;;;;;;;;;27.40;21.00;;;;;13.71;44.59;102146.06;5031397;28;45496;-62
2022/03/22 03:15:37;;;;;;;;;22.00;20.80;;;;;13.72;44.43;102150.53;5015718;28;45372;-62
2022/03/22 03:18:03;;;;;;;;;19.00;14.50;;;;;13.64;44.31;102135.00;5015655;28;46725;-62
2022/03/22 03:20:28;;;;;;;;;20.00;19.00;;;;;13.64;44.28;102140.50;5030614;28;45343;-63
2022/03/22 03:22:54;;;;;;;;;18.25;18.25;;;;;13.59;44.43;102147.66;5015984;28;45354;-61
2022/03/22 03:25:19;;;;;;;;;20.00;18.75;;;;;13.52;44.51;102134.69;5015819;28;45488;-62
2022/03/22 03:27:45;;;;;;;;;18.75;16.75;;;;;13.54;44.30;102138.09;5030696;28;46751;-61
2022/03/22 03:30:10;;;;;;;;;22.75;21.00;;;;;13.56;44.42;102146.16;5015703;28;45307;-61
2022/03/22 03:32:36;;;;;;;;;21.25;20.00;;;;;13.57;44.27;102149.75;5030963;28;45381;-61
2022/03/22 03:35:02;;;;;;;;;22.50;19.25;;;;;13.54;44.32;102148.25;5015557;28;45319;-61
2022/03/22 03:37:30;;;;;;;;;19.80;18.20;;;;;13.23;44.48;102100.63;5026182;28;45858;-62
2022/03/22 03:39:55;;;;;;;;;19.80;16.80;;;;;13.53;44.84;102143.78;4995232;28;45905;-61
2022/03/22 03:42:21;;;;;;;;;18.75;16.75;;;;;13.53;44.68;102150.16;4978374;28;45462;-61
2022/03/22 03:47:30;;;;;;;;;14.40;13.20;;;;;13.48;44.62;102140.75;4995277;28;46030;-62
2022/03/22 03:49:58;;;;;;;;;26.00;20.25;;;;;13.25;44.64;102114.22;5010372;28;45456;-62
2022/03/22 03:52:34;;;;;;;;;23.80;20.80;;;;;13.45;45.08;102150.25;4995591;28;45337;-62
2022/03/22 03:55:00;;;;;;;;;23.00;18.60;;;;;13.36;44.86;102145.94;4994534;28;45412;-61
2022/03/22 03:57:26;;;;;;;;;21.75;19.75;;;;;13.36;44.72;102144.03;4994071;28;45640;-61
2022/03/22 03:59:52;;;;;;;;;17.75;16.25;;;;;13.35;44.96;102155.25;4994092;28;45440;-62
2022/03/22 04:02:17;;;;;;;;;19.75;18.00;;;;;13.35;44.62;102156.09;5010996;28;45358;-61
2022/03/22 04:04:43;;;;;;;;;19.75;16.75;;;;;13.31;44.77;102152.03;4994371;28;45173;-61
2022/03/22 04:07:10;;;;;;;;;22.25;18.75;;;;;12.72;45.05;102058.31;4995480;28;46143;-62
2022/03/22 04:09:36;;;;;;;;;22.40;20.40;;;;;13.28;44.59;102158.78;4995433;28;45385;-61
2022/03/22 04:12:02;;;;;;;;;23.20;18.20;;;;;13.23;44.87;102169.53;4995548;28;45492;-62
2022/03/22 04:14:27;;;;;;;;;19.25;18.50;;;;;13.23;45.09;102163.19;4994741;28;45590;-62
2022/03/22 04:16:56;;;;;;;;;22.00;20.25;;;;;13.22;45.34;102170.59;4997186;28;45534;-62
2022/03/22 04:19:22;;;;;;;;;21.80;20.00;;;;;12.93;44.89;102128.31;4998917;28;45719;-61
2022/03/22 04:21:48;;;;;;;;;22.20;19.60;;;;;13.17;45.56;102172.25;4999135;28;45201;-61
2022/03/22 04:24:13;;;;;;;;;21.50;21.00;;;;;13.07;45.07;102159.59;4999153;28;45560;-62
2022/03/22 04:26:40;;;;;;;;;25.00;20.00;;;;;13.13;45.58;102169.84;4998517;28;45488;-62
2022/03/22 04:34:35;;;;;;;;;18.60;15.40;;;;;13.11;45.24;102173.84;4999101;28;45432;-62
2022/03/22 04:37:01;;;;;;;;;19.50;17.75;;;;;13.06;45.01;102176.31;4998386;28;45466;-62
2022/03/22 04:39:27;;;;;;;;;19.25;19.00;;;;;12.85;45.42;102137.53;5018184;28;45476;-61
2022/03/22 04:41:53;;;;;;;;;18.40;18.20;;;;;12.85;45.45;102140.28;5018515;28;45477;-61
2022/03/22 04:44:19;;;;;;;;;21.50;17.00;;;;;13.02;45.26;102171.22;5018567;28;45777;-60
2022/03/22 04:46:44;;;;;;;;;23.00;21.25;;;;;13.04;45.44;102176.53;5033160;28;46191;-60
2022/03/22 04:49:10;;;;;;;;;17.50;16.00;;;;;12.70;45.38;102123.75;5017707;28;45499;-60
2022/03/22 04:57:04;;;;;;;;;25.60;23.40;;;;;12.98;45.37;102189.19;5017327;28;45531;-61
2022/03/22 04:59:29;;;;;;;;;19.50;18.75;;;;;12.96;45.15;102188.53;5017650;28;45184;-61
2022/03/22 05:01:55;;;;;;;;;23.50;21.75;;;;;12.92;45.35;102189.09;5017755;28;45269;-62
2022/03/22 05:04:20;;;;;;;;;21.75;20.00;;;;;12.78;45.31;102180.66;5018198;28;45371;-62
2022/03/22 05:06:46;;;;;;;;;19.75;18.50;;;;;12.60;45.22;102162.63;5016381;28;45832;-61
2022/03/22 05:09:12;;;;;;;;;23.20;21.40;;;;;12.76;45.53;102201.19;5017791;28;45235;-62
2022/03/22 05:11:38;;;;;;;;;25.50;21.50;;;;;12.67;45.29;102203.19;5017509;28;45295;-61
2022/03/22 05:14:03;;;;;;;;;22.00;21.50;;;;;12.62;45.79;102198.25;5017852;28;45252;-62
2022/03/22 05:16:32;;;;;;;;;21.25;20.00;;;;;12.61;45.94;102199.28;5016030;28;45422;-62
2022/03/22 05:18:57;;;;;;;;;22.80;20.00;;;;;12.54;46.19;102201.09;5017350;28;45427;-64
2022/03/22 05:21:24;;;;;;;;;19.50;17.75;;;;;12.19;46.01;102147.44;5032831;28;45448;-62
2022/03/22 05:23:50;;;;;;;;;22.40;20.80;;;;;12.52;46.13;102198.53;5033030;28;45365;-62
2022/03/22 05:26:15;;;;;;;;;24.75;18.25;;;;;12.41;45.96;102174.22;5016972;28;45353;-62
2022/03/22 05:28:41;;;;;;;;;22.50;20.25;;;;;12.52;46.26;102204.03;5049070;28;45421;-61
2022/03/22 05:31:08;;;;;;;;;25.00;21.25;;;;;12.38;45.62;102186.44;5017298;28;45354;-61
2022/03/22 05:33:34;;;;;;;;;25.80;22.80;;;;;12.44;46.45;102209.66;5017720;28;45691;-61
2022/03/22 05:36:00;;;;;;;;;28.75;23.25;;;;;12.41;46.18;102205.38;5017109;28;45507;-60
2022/03/22 05:38:25;;;;;;;;;21.50;21.50;;;;;12.46;46.64;102215.81;5007148;28;45402;-61
2022/03/22 05:40:52;;;;;;;;;28.00;23.50;;;;;12.41;46.37;102223.78;4974568;27;45631;-61
2022/03/22 05:43:18;;;;;;;;;26.00;21.20;;;;;12.42;46.57;102219.97;5019981;28;45812;-60
2022/03/22 05:45:48;;;;;;;;;25.75;21.75;;;;;12.42;46.33;102225.47;5015855;28;46940;-60
2022/03/22 05:48:15;;;;;;;;;23.60;21.40;;;;;12.12;46.24;102187.75;5016794;28;45489;-60
2022/03/22 05:50:41;;;;;;;;;22.00;21.20;;;;;12.37;46.26;102227.97;5016156;28;45448;-60
2022/03/22 05:53:06;;;;;;;;;27.00;24.00;;;;;12.35;46.65;102228.16;5016088;28;45594;-60
2022/03/22 05:55:32;;;;;;;;;25.50;22.00;;;;;12.37;46.66;102238.97;4999189;28;45457;-60
2022/03/22 05:57:57;;;;;;;;;22.25;19.25;;;;;12.31;46.83;102221.28;5016362;28;45425;-61
2022/03/22 06:00:23;;;;;;;;;22.00;19.75;;;;;12.37;46.60;102227.97;5016878;28;45468;-61
2022/03/22 06:02:48;;;;;;;;;26.00;22.75;;;;;12.42;46.50;102239.25;5017039;28;45383;-61
2022/03/22 06:05:17;;;;;;;;;26.25;21.00;;;;;12.29;46.56;102240.78;5016784;28;45615;-60
2022/03/22 06:07:43;;;;;;;;;24.40;21.40;;;;;12.09;45.92;102214.78;5016561;28;45206;-61
2022/03/22 06:10:09;;;;;;;;;21.75;20.00;;;;;11.63;47.07;102162.34;5015583;28;45366;-60
2022/03/22 06:12:40;;;;;;;;;26.00;23.40;;;;;11.96;46.53;102234.66;5015355;28;45618;-60
2022/03/22 06:15:15;;;;;;;;;26.00;21.80;;;;;12.00;46.72;102258.88;5016499;28;47022;-60
2022/03/22 06:18:10;;;;;;;;;27.20;24.20;;;;;11.91;46.99;102255.31;5016592;28;45240;-61
2022/03/22 06:20:36;;;;;;;;;27.60;23.40;;;;;11.92;47.06;102267.19;5016748;28;45369;-62
2022/03/22 06:23:03;;;;;;;;;30.60;23.00;;;;;11.64;47.39;102220.97;5015289;28;45619;-62
2022/03/22 06:25:29;;;;;;;;;25.80;25.80;;;;;11.89;47.37;102270.28;5015949;28;45845;-66
2022/03/22 06:27:56;;;;;;;;;27.50;24.00;;;;;11.92;46.54;102270.78;5016076;28;45398;-61
2022/03/22 06:30:22;;;;;;;;;33.20;28.40;;;;;11.95;46.78;102274.22;5016533;28;45444;-61
2022/03/22 06:33:00;;;;;;;;;27.40;21.60;;;;;11.84;46.75;102257.09;5015025;28;45956;-60
2022/03/22 06:35:30;;;;;;;;;27.20;20.60;;;;;11.93;46.92;102272.50;5016137;28;45853;-62
2022/03/22 06:37:56;;;;;;;;;25.00;22.20;;;;;11.95;46.62;102272.31;5015656;28;45469;-62
2022/03/22 06:40:23;;;;;;;;;26.25;24.75;;;;;11.92;46.61;102267.19;5006156;28;45480;-61
2022/03/22 06:42:49;;;;;;;;;31.60;30.40;;;;;11.86;47.06;102273.44;5016515;28;45382;-62
2022/03/22 06:45:14;;;;;;;;;21.75;20.25;;;;;11.85;46.27;102274.47;5015967;28;45370;-61
2022/03/22 06:47:41;;;;;;;;;26.50;25.50;;;;;11.75;46.56;102277.47;5048187;28;45432;-62
2022/03/22 06:50:11;;;;;;;;;29.40;27.00;;;;;11.84;46.44;102290.09;5014795;28;45466;-62
2022/03/22 06:52:37;;;;;;;;;29.60;28.40;;;;;11.88;46.18;102294.22;5016114;28;45544;-64
2022/03/22 06:55:03;;;;;;;;;28.75;25.00;;;;;11.80;46.38;102281.38;5014687;28;45542;-60
2022/03/22 06:57:29;;;;;;;;;31.80;26.20;;;;;11.88;45.86;102293.34;5015733;28;45397;-60
2022/03/22 06:59:58;;;;;;;;;29.50;29.25;;;;;11.84;46.37;102292.84;5031190;28;45731;-63
2022/03/22 07:02:24;;;;;;;;;28.60;25.40;;;;;11.65;46.41;102253.78;5016129;28;45350;-63
2022/03/22 07:04:49;;;;;;;;;29.50;26.50;;;;;11.87;46.19;102294.38;5047818;28;45528;-59
2022/03/22 07:07:15;;;;;;;;;27.25;25.75;;;;;11.79;45.97;102293.41;5047498;28;45385;-61
2022/03/22 07:09:42;;;;;;;;;33.25;30.75;;;;;11.62;45.92;102247.78;5016003;28;45432;-59
2022/03/22 07:12:08;;;;;;;;;33.00;28.20;;;;;11.63;45.59;102255.88;4998048;28;45630;-62
2022/03/22 07:14:33;;;;;;;;;32.20;29.20;;;;;11.90;45.92;102285.78;5015775;28;46385;-60
2022/03/22 07:16:59;;;;;;;;;33.00;28.50;;;;;11.95;45.83;102286.06;5015650;28;45337;-62
2022/03/22 07:19:24;;;;;;;;;28.75;22.25;;;;;11.80;45.69;102253.84;5014482;28;45349;-61
2022/03/22 07:21:50;;;;;;;;;34.75;25.75;;;;;12.01;45.27;102290.84;5015759;28;45358;-60
2022/03/22 07:24:18;;;;;;;;;31.00;24.75;;;;;11.99;45.46;102301.19;5047438;28;47031;-62
2022/03/22 07:26:44;;;;;;;;;33.00;27.80;;;;;11.99;45.11;102303.94;5015617;28;45725;-61
2022/03/22 07:29:10;;;;;;;;;31.50;29.25;;;;;11.97;45.58;102294.16;5015643;28;45326;-61
2022/03/22 07:31:38;;;;;;;;;28.00;25.25;;;;;12.06;45.46;102310.44;5031353;28;45446;-58
2022/03/22 07:34:17;;;;;;;;;34.40;30.20;;;;;12.09;45.12;102308.34;5014444;28;47187;-60
2022/03/22 07:36:44;;;;;;;;;29.60;25.20;;;;;12.11;45.08;102306.28;4998098;28;45425;-60
2022/03/22 07:39:10;;;;;;;;;26.40;24.80;;;;;12.12;45.14;102308.00;5015131;28;45568;-60
2022/03/22 07:41:40;;;;;;;;;28.80;26.40;;;;;12.13;45.29;102310.59;5014059;28;45425;-59
2022/03/22 07:44:06;;;;;;;;;32.80;30.00;;;;;12.14;44.88;102309.53;5013920;28;45663;-59
2022/03/22 07:46:31;;;;;;;;;31.60;28.00;;;;;12.19;44.75;102309.84;5015339;28;45380;-60
2022/03/22 07:52:57;;;;;;;;;31.00;26.75;;;;;12.20;44.83;102305.19;5015199;28;45282;-60
2022/03/22 07:54:26;;;;;;;;;27.80;27.20;;;;;12.25;44.84;102318.38;4995130;28;45831;-60
2022/03/22 07:56:52;;;;;;;;;29.50;29.50;;;;;12.28;44.98;102307.03;4995334;28;45608;-61
2022/03/22 07:59:17;;;;;;;;;38.75;34.25;;;;;12.29;44.95;102311.47;5010632;28;45335;-61
2022/03/22 08:01:43;;;;;;;;;29.75;26.25;;;;;12.28;44.36;102316.13;4995202;28;45551;-59
2022/03/22 08:04:08;;;;;;;;;37.00;30.50;;;;;12.29;44.45;102311.47;4995177;28;45298;-59
2022/03/22 08:06:34;;;;;;;;;29.25;23.75;;;;;12.32;43.76;102319.34;4994761;28;45368;-63
2022/03/22 08:08:59;;;;;;;;;29.75;27.50;;;;;12.26;43.70;102293.44;4995199;28;45437;-60
2022/03/22 08:11:25;;;;;;;;;33.50;29.25;;;;;12.42;43.66;102313.59;4995250;28;45452;-60
2022/03/22 08:13:53;;;;;;;;;35.75;31.25;;;;;12.44;43.66;102312.38;4994743;28;46440;-60
2022/03/22 08:16:19;;;;;;;;;32.20;27.00;;;;;12.47;43.82;102322.16;5026212;28;45429;-62
2022/03/22 08:18:44;;;;;;;;;32.25;30.25;;;;;12.50;43.71;102310.78;4994637;28;45390;-62
2022/03/22 08:21:10;;;;;;;;;30.75;27.75;;;;;12.61;44.09;102315.81;4994967;28;45802;-61
2022/03/22 08:23:36;;;;;;;;;32.25;27.00;;;;;12.60;43.90;102308.59;5012893;28;45659;-61
2022/03/22 08:26:01;;;;;;;;;35.00;31.00;;;;;12.70;43.98;102316.59;5014436;28;45798;-60
2022/03/22 08:28:27;;;;;;;;;40.50;34.00;;;;;12.78;43.90;102318.41;5029685;28;45843;-62
2022/03/22 08:30:52;;;;;;;;;36.00;31.75;;;;;12.80;43.41;102327.34;5029830;28;45286;-61
2022/03/22 08:33:18;;;;;;;;;45.00;32.50;;;;;12.61;43.62;102284.69;5029363;28;46006;-62
2022/03/22 08:35:49;;;;;;;;;31.00;28.75;;;;;12.67;42.63;102288.56;5012873;28;45380;-63
2022/03/22 08:38:16;;;;;;;;;39.20;32.00;;;;;12.88;42.51;102318.97;5013214;28;45685;-63
2022/03/22 08:40:41;;;;;;;;;38.40;30.40;;;;;12.92;41.66;102318.63;5012887;28;45343;-62
2022/03/22 08:43:10;;;;;;;;;30.25;25.75;;;;;12.87;40.85;102309.00;5039261;28;46420;-59
2022/03/22 08:45:36;;;;;;;;;30.00;27.40;;;;;12.86;39.53;102307.31;5008334;28;46033;-58
2022/03/22 08:48:02;;;;;;;;;26.80;24.20;;;;;12.93;38.30;102299.16;5008284;28;45816;-61
2022/03/22 08:50:28;;;;;;;;;29.20;25.00;;;;;13.07;37.09;102321.38;5012018;28;45361;-63
2022/03/22 08:52:56;;;;;;;;;21.75;20.00;;;;;13.13;36.25;102315.13;5013095;28;46434;-58
2022/03/22 08:55:23;;;;;;;;;22.00;21.40;;;;;13.09;34.54;102308.25;5013723;28;45374;-60
2022/03/22 08:57:49;;;;;;;;;18.80;18.40;;;;;12.95;34.95;102282.41;5011506;28;45409;-57
2022/03/22 09:00:18;;;;;;;;;21.60;18.00;;;;;13.19;35.39;102302.47;5012647;28;45409;-53
2022/03/22 09:02:44;;;;;;;;;24.20;20.00;;;;;12.94;34.34;102253.13;5013453;28;47745;-57
2022/03/22 09:07:56;;;;;;;;;21.40;18.40;;;;;13.40;34.15;102304.44;5016675;28;45475;-57
2022/03/22 09:10:22;;;;;;;;;18.00;16.80;;;;;13.42;32.99;102300.44;5014808;28;45850;-56
2022/03/22 09:12:48;;;;;;;;;19.75;16.50;;;;;13.50;31.67;102282.94;5016072;28;45730;-56
2022/03/22 09:15:17;;;;;;;;;16.20;14.00;;;;;13.61;31.25;102295.38;5016879;28;45307;-60
2022/03/22 09:17:43;;;;;;;;;16.60;15.40;;;;;13.45;30.83;102276.28;5016717;28;45501;-60
2022/03/22 09:20:12;;;;;;;;;17.50;13.75;;;;;13.67;29.44;102315.84;5000979;28;45398;-57
2022/03/22 09:22:38;;;;;;;;;18.40;14.40;;;;;13.70;29.95;102309.91;5017373;28;46529;-56
2022/03/22 09:25:04;;;;;;;;;18.40;18.40;;;;;13.51;29.05;102289.31;5036075;28;45546;-65
2022/03/22 09:27:29;;;;;;;;;17.25;17.25;;;;;13.72;29.01;102320.75;5035787;28;45401;-65
2022/03/22 09:29:57;;;;;;;;;20.75;14.25;;;;;13.74;29.63;102327.78;5036712;28;45460;-64
2022/03/22 09:32:23;;;;;;;;;16.00;14.60;;;;;13.83;30.17;102314.75;5052785;28;48307;-65
2022/03/22 09:34:49;;;;;;;;;17.80;17.80;;;;;13.93;29.64;102334.56;5068427;28;45668;-66
2022/03/22 09:37:16;;;;;;;;;13.75;13.50;;;;;13.78;28.64;102287.69;5037171;28;45399;-66
2022/03/22 09:39:43;;;;;;;;;19.80;18.80;;;;;14.07;27.66;102318.16;5037121;28;45476;-65
2022/03/22 09:42:09;;;;;;;;;15.60;15.60;;;;;14.07;27.91;102312.63;5037228;28;46389;-67
2022/03/22 09:44:35;;;;;;;;;21.75;17.75;;;;;14.17;28.36;102313.16;5035680;28;45593;-65
2022/03/22 09:47:01;;;;;;;;;19.20;15.60;;;;;14.14;28.08;102308.03;5018008;28;45392;-64
2022/03/22 09:49:27;;;;;;;;;16.40;14.20;;;;;13.64;27.93;102216.88;5037346;28;45382;-65
2022/03/22 09:51:53;;;;;;;;;16.00;16.00;;;;;14.25;26.83;102316.84;5020571;28;47973;-66
2022/03/22 09:54:19;;;;;;;;;16.75;16.25;;;;;14.31;27.96;102307.78;5019054;28;45414;-65
2022/03/22 09:56:45;;;;;;;;;18.00;17.40;;;;;14.30;27.89;102290.31;5036886;28;45273;-66
2022/03/22 09:59:12;;;;;;;;;17.40;15.00;;;;;14.48;28.39;102303.66;5017707;28;45639;-66
2022/03/22 10:01:38;;;;;;;;;20.00;19.20;;;;;14.62;27.74;102315.66;5035746;28;45432;-67
2022/03/22 10:04:13;;;;;;;;;17.60;16.40;;;;;14.35;26.17;102274.03;5018528;28;46051;-64
2022/03/22 10:06:50;;;;;;;;;16.00;14.60;;;;;14.66;26.81;102318.88;5019954;28;45390;-66
2022/03/22 10:09:29;;;;;;;;;15.60;15.20;;;;;14.67;27.13;102300.41;5035044;28;45611;-63
2022/03/22 10:11:54;;;;;;;;;22.00;20.00;;;;;14.83;27.35;102321.38;5017581;28;45759;-64
2022/03/22 10:14:20;;;;;;;;;17.00;16.00;;;;;14.87;27.12;102304.19;5034958;28;45305;-64
2022/03/22 10:16:50;;;;;;;;;17.25;17.25;;;;;14.98;26.91;102308.28;5051910;28;45372;-64
2022/03/22 10:19:23;;;;;;;;;13.20;12.00;;;;;14.91;26.52;102282.53;5034902;28;45947;-66
2022/03/22 10:21:49;;;;;;;;;16.20;14.40;;;;;15.11;26.40;102310.25;5029885;28;46744;-64
2022/03/22 10:24:17;;;;;;;;;20.75;17.00;;;;;15.17;27.01;102305.84;5033380;28;45530;-64
2022/03/22 10:26:46;;;;;;;;;18.40;16.40;;;;;14.96;27.17;102251.50;5034797;28;45431;-63
2022/03/22 10:29:14;;;;;;;;;19.40;17.60;;;;;15.13;26.51;102255.63;5036093;28;45384;-61
2022/03/22 10:31:40;;;;;;;;;20.60;17.40;;;;;15.45;26.92;102288.31;5051629;28;45964;-62
2022/03/22 10:34:12;;;;;;;;;17.50;17.50;;;;;15.58;25.90;102295.78;5034770;28;45437;-63
2022/03/22 10:36:39;;;;;;;;;22.00;20.20;;;;;15.51;26.47;102276.41;5034822;28;45318;-64
2022/03/22 10:39:06;;;;;;;;;16.60;14.20;;;;;15.69;25.98;102283.28;5035737;28;45603;-63
2022/03/22 10:41:33;;;;;;;;;17.80;15.60;;;;;15.67;25.82;102279.84;5034456;28;46632;-63
2022/03/22 10:44:05;;;;;;;;;18.40;15.40;;;;;15.82;25.48;102294.38;5034679;28;45358;-61
2022/03/22 10:46:31;;;;;;;;;17.80;16.00;;;;;15.94;25.52;102285.47;5051270;28;45541;-64
2022/03/22 10:49:06;;;;;;;;;16.00;16.00;;;;;15.80;25.56;102246.66;5034766;28;45311;-62
2022/03/22 10:51:45;;;;;;;;;19.00;18.20;;;;;16.16;25.63;102277.84;5019727;28;46860;-63
2022/03/22 10:54:12;;;;;;;;;20.00;18.00;;;;;16.30;24.45;102287.00;5025538;28;45323;-64
2022/03/22 10:56:53;;;;;;;;;17.20;15.80;;;;;16.16;25.43;102243.75;5067984;28;45507;-63
2022/03/22 10:59:21;;;;;;;;;15.00;15.00;;;;;16.28;25.56;102241.19;5034921;28;45507;-62
2022/03/22 11:01:48;;;;;;;;;17.00;16.80;;;;;16.60;25.31;102282.94;5034061;28;45557;-63
2022/03/22 11:04:19;;;;;;;;;21.80;18.80;;;;;16.57;24.88;102264.81;5035755;28;45314;-64
2022/03/22 11:06:48;;;;;;;;;16.60;12.80;;;;;16.72;25.05;102274.81;5066376;28;45351;-64
2022/03/22 11:09:17;;;;;;;;;23.00;18.80;;;;;16.84;25.01;102258.38;5033577;28;45432;-64
2022/03/22 11:11:43;;;;;;;;;17.20;16.00;;;;;16.89;24.76;102270.53;5066220;28;46112;-65
2022/03/22 11:14:11;;;;;;;;;19.00;14.20;;;;;16.87;24.76;102244.91;5034058;28;45408;-63
2022/03/22 11:16:36;;;;;;;;;18.80;17.40;;;;;17.15;24.04;102265.13;5050785;28;45369;-64
2022/03/22 11:19:03;;;;;;;;;12.00;12.00;;;;;17.24;24.23;102262.97;5051151;28;45641;-62
2022/03/22 11:21:29;;;;;;;;;20.60;18.20;;;;;17.20;24.15;102235.66;5040553;28;46249;-65
2022/03/22 11:24:12;;;;;;;;;19.75;18.75;;;;;17.51;24.47;102258.16;5049542;28;45694;-62
2022/03/22 11:26:45;;;;;;;;;19.00;15.00;;;;;16.94;22.95;102140.41;5033915;28;45395;-63
2022/03/22 11:29:11;;;;;;;;;20.40;18.40;;;;;17.69;23.14;102251.84;5051247;28;45948;-61
2022/03/22 11:31:37;;;;;;;;;18.60;16.80;;;;;17.79;23.04;102253.28;5034941;28;46444;-60
2022/03/22 11:34:09;;;;;;;;;19.50;17.75;;;;;17.84;23.25;102242.34;5016880;28;45776;-59